sensor_id;sensor_type;location;lat;lon;timestamp;P1;durP1;ratioP1;P2;durP2;ratioP2
3967;SDS011;9221;42.646;23.380;2022-09-01T00:02:22;16.30;;;8.30;;
3967;SDS011;9221;42.646;23.380;2022-09-01T00:04:52;15.37;;;7.40;;
3967;SDS011;9221;42.646;23.380;2022-09-01T00:07:22;15.20;;;7.47;;
3967;SDS011;9221;42.646;23.380;2022-09-01T00:09:49;15.87;;;8.63;;
3967;SDS011;9221;42.646;23.380;2022-09-01T00:12:15;21.70;;;8.70;;
3967;SDS011;9221;42.646;23.380;2022-09-01T00:14:41;15.40;;;7.83;;
3967;SDS011;9221;42.646;23.380;2022-09-01T00:17:08;16.13;;;7.07;;
3967;SDS011;9221;42.646;23.380;2022-09-01T00:19:35;21.47;;;8.93;;
3967;SDS011;9221;42.646;23.380;2022-09-01T00:22:01;13.17;;;7.87;;
3967;SDS011;9221;42.646;23.380;2022-09-01T00:24:28;18.60;;;9.07;;
3967;SDS011;9221;42.646;23.380;2022-09-01T00:26:54;28.73;;;10.40;;
3967;SDS011;9221;42.646;23.380;2022-09-01T00:29:21;22.60;;;9.77;;
3967;SDS011;9221;42.646;23.380;2022-09-01T00:31:46;22.80;;;10.87;;
3967;SDS011;9221;42.646;23.380;2022-09-01T00:34:12;18.47;;;9.83;;
3967;SDS011;9221;42.646;23.380;2022-09-01T00:36:38;25.90;;;9.77;;
3967;SDS011;9221;42.646;23.380;2022-09-01T00:39:04;21.60;;;9.70;;
3967;SDS011;9221;42.646;23.380;2022-09-01T00:41:30;18.10;;;9.73;;
3967;SDS011;9221;42.646;23.380;2022-09-01T00:43:58;24.47;;;10.30;;
3967;SDS011;9221;42.646;23.380;2022-09-01T00:49:16;18.80;;;8.97;;
3967;SDS011;9221;42.646;23.380;2022-09-01T00:51:44;14.30;;;8.70;;
3967;SDS011;9221;42.646;23.380;2022-09-01T00:54:15;17.23;;;9.10;;
3967;SDS011;9221;42.646;23.380;2022-09-01T00:56:46;19.50;;;9.73;;
3967;SDS011;9221;42.646;23.380;2022-09-01T00:59:12;18.27;;;8.50;;
3967;SDS011;9221;42.646;23.380;2022-09-01T01:01:40;19.00;;;8.80;;
3967;SDS011;9221;42.646;23.380;2022-09-01T01:04:06;16.07;;;8.53;;
3967;SDS011;9221;42.646;23.380;2022-09-01T01:06:59;13.60;;;8.00;;
3967;SDS011;9221;42.646;23.380;2022-09-01T01:09:29;17.50;;;8.80;;
3967;SDS011;9221;42.646;23.380;2022-09-01T01:11:58;14.93;;;8.77;;
3967;SDS011;9221;42.646;23.380;2022-09-01T01:14:25;19.37;;;9.77;;
3967;SDS011;9221;42.646;23.380;2022-09-01T01:16:56;19.87;;;10.33;;
3967;SDS011;9221;42.646;23.380;2022-09-01T01:22:21;15.30;;;8.20;;
3967;SDS011;9221;42.646;23.380;2022-09-01T01:28:19;21.10;;;8.90;;
3967;SDS011;9221;42.646;23.380;2022-09-01T01:30:56;19.53;;;8.80;;
3967;SDS011;9221;42.646;23.380;2022-09-01T01:33:29;21.90;;;9.63;;
3967;SDS011;9221;42.646;23.380;2022-09-01T01:35:59;21.80;;;10.17;;
3967;SDS011;9221;42.646;23.380;2022-09-01T01:38:26;16.37;;;8.53;;
3967;SDS011;9221;42.646;23.380;2022-09-01T01:40:53;21.43;;;9.40;;
3967;SDS011;9221;42.646;23.380;2022-09-01T01:43:18;20.17;;;9.93;;
3967;SDS011;9221;42.646;23.380;2022-09-01T01:45:48;17.67;;;8.60;;
3967;SDS011;9221;42.646;23.380;2022-09-01T01:48:16;17.97;;;8.97;;
3967;SDS011;9221;42.646;23.380;2022-09-01T01:50:48;20.93;;;10.20;;
3967;SDS011;9221;42.646;23.380;2022-09-01T01:53:14;21.60;;;10.93;;
3967;SDS011;9221;42.646;23.380;2022-09-01T01:55:43;21.30;;;9.83;;
3967;SDS011;9221;42.646;23.380;2022-09-01T01:58:09;21.23;;;9.10;;
3967;SDS011;9221;42.646;23.380;2022-09-01T02:00:36;19.23;;;9.40;;
3967;SDS011;9221;42.646;23.380;2022-09-01T02:03:02;21.20;;;9.13;;
3967;SDS011;9221;42.646;23.380;2022-09-01T02:05:32;22.17;;;9.93;;
3967;SDS011;9221;42.646;23.380;2022-09-01T02:08:01;17.33;;;8.63;;
3967;SDS011;9221;42.646;23.380;2022-09-01T02:10:32;19.30;;;10.10;;
3967;SDS011;9221;42.646;23.380;2022-09-01T02:13:01;19.00;;;9.13;;
3967;SDS011;9221;42.646;23.380;2022-09-01T02:15:29;15.27;;;8.60;;
3967;SDS011;9221;42.646;23.380;2022-09-01T02:17:59;22.43;;;9.80;;
3967;SDS011;9221;42.646;23.380;2022-09-01T02:20:25;15.63;;;8.60;;
3967;SDS011;9221;42.646;23.380;2022-09-01T02:22:53;15.40;;;8.43;;
3967;SDS011;9221;42.646;23.380;2022-09-01T02:25:20;18.00;;;8.33;;
3967;SDS011;9221;42.646;23.380;2022-09-01T02:27:46;15.47;;;8.80;;
3967;SDS011;9221;42.646;23.380;2022-09-01T02:30:19;20.00;;;8.70;;
3967;SDS011;9221;42.646;23.380;2022-09-01T02:32:46;16.10;;;8.40;;
3967;SDS011;9221;42.646;23.380;2022-09-01T02:35:11;19.87;;;8.97;;
3967;SDS011;9221;42.646;23.380;2022-09-01T02:37:37;17.43;;;8.73;;
3967;SDS011;9221;42.646;23.380;2022-09-01T02:40:04;23.77;;;8.97;;
3967;SDS011;9221;42.646;23.380;2022-09-01T02:42:34;16.57;;;9.20;;
3967;SDS011;9221;42.646;23.380;2022-09-01T02:45:00;23.50;;;9.47;;
3967;SDS011;9221;42.646;23.380;2022-09-01T02:47:26;18.30;;;9.00;;
3967;SDS011;9221;42.646;23.380;2022-09-01T02:49:52;18.03;;;8.97;;
3967;SDS011;9221;42.646;23.380;2022-09-01T02:52:18;18.27;;;9.07;;
3967;SDS011;9221;42.646;23.380;2022-09-01T02:54:46;21.43;;;10.07;;
3967;SDS011;9221;42.646;23.380;2022-09-01T02:57:14;23.03;;;9.97;;
3967;SDS011;9221;42.646;23.380;2022-09-01T02:59:40;17.83;;;8.57;;
3967;SDS011;9221;42.646;23.380;2022-09-01T03:02:06;20.70;;;8.10;;
3967;SDS011;9221;42.646;23.380;2022-09-01T03:04:32;16.50;;;8.07;;
3967;SDS011;9221;42.646;23.380;2022-09-01T03:07:02;19.67;;;8.60;;
3967;SDS011;9221;42.646;23.380;2022-09-01T03:09:30;25.93;;;9.00;;
3967;SDS011;9221;42.646;23.380;2022-09-01T03:11:59;21.97;;;8.77;;
3967;SDS011;9221;42.646;23.380;2022-09-01T03:14:24;22.20;;;9.50;;
3967;SDS011;9221;42.646;23.380;2022-09-01T03:16:50;20.77;;;8.27;;
3967;SDS011;9221;42.646;23.380;2022-09-01T03:19:16;16.83;;;8.30;;
3967;SDS011;9221;42.646;23.380;2022-09-01T03:21:43;14.60;;;8.47;;
3967;SDS011;9221;42.646;23.380;2022-09-01T03:24:11;16.87;;;8.63;;
3967;SDS011;9221;42.646;23.380;2022-09-01T03:26:42;14.43;;;8.63;;
3967;SDS011;9221;42.646;23.380;2022-09-01T03:29:08;23.10;;;8.30;;
3967;SDS011;9221;42.646;23.380;2022-09-01T03:31:35;21.80;;;9.07;;
3967;SDS011;9221;42.646;23.380;2022-09-01T03:34:01;17.83;;;9.67;;
3967;SDS011;9221;42.646;23.380;2022-09-01T03:36:27;15.50;;;8.50;;
3967;SDS011;9221;42.646;23.380;2022-09-01T03:38:55;19.50;;;8.90;;
3967;SDS011;9221;42.646;23.380;2022-09-01T03:41:22;18.73;;;9.37;;
3967;SDS011;9221;42.646;23.380;2022-09-01T03:43:49;17.77;;;8.50;;
3967;SDS011;9221;42.646;23.380;2022-09-01T03:46:19;22.13;;;8.50;;
3967;SDS011;9221;42.646;23.380;2022-09-01T03:48:52;19.87;;;8.40;;
3967;SDS011;9221;42.646;23.380;2022-09-01T03:51:19;22.23;;;8.87;;
3967;SDS011;9221;42.646;23.380;2022-09-01T03:53:46;20.60;;;9.13;;
3967;SDS011;9221;42.646;23.380;2022-09-01T03:56:13;20.80;;;9.57;;
3967;SDS011;9221;42.646;23.380;2022-09-01T03:58:39;24.00;;;9.37;;
3967;SDS011;9221;42.646;23.380;2022-09-01T04:01:08;17.87;;;9.30;;
3967;SDS011;9221;42.646;23.380;2022-09-01T04:03:33;19.80;;;9.83;;
3967;SDS011;9221;42.646;23.380;2022-09-01T04:06:00;19.47;;;9.23;;
3967;SDS011;9221;42.646;23.380;2022-09-01T04:08:26;16.90;;;8.50;;
3967;SDS011;9221;42.646;23.380;2022-09-01T04:10:56;17.53;;;7.57;;
3967;SDS011;9221;42.646;23.380;2022-09-01T04:13:34;15.07;;;8.13;;
3967;SDS011;9221;42.646;23.380;2022-09-01T04:16:02;19.17;;;8.77;;
3967;SDS011;9221;42.646;23.380;2022-09-01T04:18:34;20.43;;;8.83;;
3967;SDS011;9221;42.646;23.380;2022-09-01T04:20:59;19.80;;;8.90;;
3967;SDS011;9221;42.646;23.380;2022-09-01T04:23:29;19.20;;;7.90;;
3967;SDS011;9221;42.646;23.380;2022-09-01T04:26:06;19.63;;;8.50;;
3967;SDS011;9221;42.646;23.380;2022-09-01T04:28:35;18.40;;;7.90;;
3967;SDS011;9221;42.646;23.380;2022-09-01T04:31:05;24.83;;;9.00;;
3967;SDS011;9221;42.646;23.380;2022-09-01T04:33:33;20.07;;;8.60;;
3967;SDS011;9221;42.646;23.380;2022-09-01T04:36:12;15.40;;;8.10;;
3967;SDS011;9221;42.646;23.380;2022-09-01T04:38:43;18.93;;;8.40;;
3967;SDS011;9221;42.646;23.380;2022-09-01T04:41:13;21.00;;;9.10;;
3967;SDS011;9221;42.646;23.380;2022-09-01T04:43:42;27.10;;;8.73;;
3967;SDS011;9221;42.646;23.380;2022-09-01T04:46:09;20.53;;;8.50;;
3967;SDS011;9221;42.646;23.380;2022-09-01T04:48:38;15.87;;;7.80;;
3967;SDS011;9221;42.646;23.380;2022-09-01T04:51:07;17.53;;;8.30;;
3967;SDS011;9221;42.646;23.380;2022-09-01T04:53:34;17.33;;;8.70;;
3967;SDS011;9221;42.646;23.380;2022-09-01T04:56:07;20.50;;;9.53;;
3967;SDS011;9221;42.646;23.380;2022-09-01T04:58:33;22.03;;;9.77;;
3967;SDS011;9221;42.646;23.380;2022-09-01T05:01:01;18.10;;;8.83;;
3967;SDS011;9221;42.646;23.380;2022-09-01T05:03:37;22.63;;;9.53;;
3967;SDS011;9221;42.646;23.380;2022-09-01T05:06:03;23.50;;;9.20;;
3967;SDS011;9221;42.646;23.380;2022-09-01T05:08:28;16.47;;;8.30;;
3967;SDS011;9221;42.646;23.380;2022-09-01T05:10:59;16.63;;;8.20;;
3967;SDS011;9221;42.646;23.380;2022-09-01T05:13:31;19.00;;;8.77;;
3967;SDS011;9221;42.646;23.380;2022-09-01T05:16:01;18.10;;;8.70;;
3967;SDS011;9221;42.646;23.380;2022-09-01T05:18:30;16.37;;;8.57;;
3967;SDS011;9221;42.646;23.380;2022-09-01T05:20:55;17.00;;;8.60;;
3967;SDS011;9221;42.646;23.380;2022-09-01T05:23:21;19.20;;;9.40;;
3967;SDS011;9221;42.646;23.380;2022-09-01T05:25:48;20.63;;;9.10;;
3967;SDS011;9221;42.646;23.380;2022-09-01T05:28:17;19.43;;;9.20;;
3967;SDS011;9221;42.646;23.380;2022-09-01T05:30:44;19.80;;;8.53;;
3967;SDS011;9221;42.646;23.380;2022-09-01T05:33:12;28.53;;;9.20;;
3967;SDS011;9221;42.646;23.380;2022-09-01T05:35:51;19.40;;;9.80;;
3967;SDS011;9221;42.646;23.380;2022-09-01T05:38:19;19.30;;;9.90;;
3967;SDS011;9221;42.646;23.380;2022-09-01T05:40:45;23.07;;;10.97;;
3967;SDS011;9221;42.646;23.380;2022-09-01T05:43:22;23.53;;;10.70;;
3967;SDS011;9221;42.646;23.380;2022-09-01T05:45:48;29.30;;;12.10;;
3967;SDS011;9221;42.646;23.380;2022-09-01T05:48:13;36.23;;;12.80;;
3967;SDS011;9221;42.646;23.380;2022-09-01T05:50:44;33.57;;;13.70;;
3967;SDS011;9221;42.646;23.380;2022-09-01T05:53:10;29.70;;;12.83;;
3967;SDS011;9221;42.646;23.380;2022-09-01T05:55:45;31.90;;;13.03;;
3967;SDS011;9221;42.646;23.380;2022-09-01T05:58:12;28.80;;;12.60;;
3967;SDS011;9221;42.646;23.380;2022-09-01T06:00:41;29.50;;;12.90;;
3967;SDS011;9221;42.646;23.380;2022-09-01T06:03:08;28.23;;;13.57;;
3967;SDS011;9221;42.646;23.380;2022-09-01T06:08:25;32.97;;;12.10;;
3967;SDS011;9221;42.646;23.380;2022-09-01T06:10:53;29.20;;;13.50;;
3967;SDS011;9221;42.646;23.380;2022-09-01T06:13:18;34.87;;;14.77;;
3967;SDS011;9221;42.646;23.380;2022-09-01T06:15:49;27.67;;;12.27;;
3967;SDS011;9221;42.646;23.380;2022-09-01T06:18:17;27.87;;;13.30;;
3967;SDS011;9221;42.646;23.380;2022-09-01T06:20:45;32.33;;;13.23;;
3967;SDS011;9221;42.646;23.380;2022-09-01T06:23:12;27.13;;;13.00;;
3967;SDS011;9221;42.646;23.380;2022-09-01T06:25:48;29.23;;;12.50;;
3967;SDS011;9221;42.646;23.380;2022-09-01T06:28:14;36.17;;;13.67;;
3967;SDS011;9221;42.646;23.380;2022-09-01T06:30:40;37.07;;;13.23;;
3967;SDS011;9221;42.646;23.380;2022-09-01T06:33:09;28.07;;;12.90;;
3967;SDS011;9221;42.646;23.380;2022-09-01T06:35:36;35.30;;;15.40;;
3967;SDS011;9221;42.646;23.380;2022-09-01T06:38:03;32.77;;;13.87;;
3967;SDS011;9221;42.646;23.380;2022-09-01T06:40:41;30.37;;;13.50;;
3967;SDS011;9221;42.646;23.380;2022-09-01T06:43:07;31.50;;;14.40;;
3967;SDS011;9221;42.646;23.380;2022-09-01T06:45:38;34.03;;;15.43;;
3967;SDS011;9221;42.646;23.380;2022-09-01T06:48:05;41.30;;;13.13;;
3967;SDS011;9221;42.646;23.380;2022-09-01T06:50:31;36.20;;;14.40;;
3967;SDS011;9221;42.646;23.380;2022-09-01T06:52:57;31.50;;;14.53;;
3967;SDS011;9221;42.646;23.380;2022-09-01T06:55:35;40.37;;;15.17;;
3967;SDS011;9221;42.646;23.380;2022-09-01T06:58:02;33.67;;;14.90;;
3967;SDS011;9221;42.646;23.380;2022-09-01T07:00:33;31.87;;;15.00;;
3967;SDS011;9221;42.646;23.380;2022-09-01T07:03:06;36.93;;;15.70;;
3967;SDS011;9221;42.646;23.380;2022-09-01T07:05:34;33.57;;;15.90;;
3967;SDS011;9221;42.646;23.380;2022-09-01T07:08:03;33.53;;;15.00;;
3967;SDS011;9221;42.646;23.380;2022-09-01T07:10:37;39.67;;;14.93;;
3967;SDS011;9221;42.646;23.380;2022-09-01T07:13:09;38.63;;;15.47;;
3967;SDS011;9221;42.646;23.380;2022-09-01T07:15:43;33.37;;;14.67;;
3967;SDS011;9221;42.646;23.380;2022-09-01T07:18:09;41.00;;;15.13;;
3967;SDS011;9221;42.646;23.380;2022-09-01T07:20:39;41.90;;;15.33;;
3967;SDS011;9221;42.646;23.380;2022-09-01T07:23:05;34.43;;;15.57;;
3967;SDS011;9221;42.646;23.380;2022-09-01T07:25:32;40.43;;;16.23;;
3967;SDS011;9221;42.646;23.380;2022-09-01T07:28:03;39.33;;;15.83;;
3967;SDS011;9221;42.646;23.380;2022-09-01T07:30:29;35.03;;;15.80;;
3967;SDS011;9221;42.646;23.380;2022-09-01T07:32:57;46.27;;;17.10;;
3967;SDS011;9221;42.646;23.380;2022-09-01T07:35:22;39.30;;;14.60;;
3967;SDS011;9221;42.646;23.380;2022-09-01T07:37:48;36.23;;;16.87;;
3967;SDS011;9221;42.646;23.380;2022-09-01T07:40:16;31.63;;;16.53;;
3967;SDS011;9221;42.646;23.380;2022-09-01T07:42:44;50.37;;;15.20;;
3967;SDS011;9221;42.646;23.380;2022-09-01T07:45:11;34.73;;;15.50;;
3967;SDS011;9221;42.646;23.380;2022-09-01T07:47:39;30.13;;;14.13;;
3967;SDS011;9221;42.646;23.380;2022-09-01T07:50:05;30.43;;;14.87;;
3967;SDS011;9221;42.646;23.380;2022-09-01T07:52:36;36.00;;;15.37;;
3967;SDS011;9221;42.646;23.380;2022-09-01T07:55:11;33.17;;;14.27;;
3967;SDS011;9221;42.646;23.380;2022-09-01T07:57:39;31.90;;;15.13;;
3967;SDS011;9221;42.646;23.380;2022-09-01T08:00:07;25.87;;;14.67;;
3967;SDS011;9221;42.646;23.380;2022-09-01T08:02:37;30.87;;;16.00;;
3967;SDS011;9221;42.646;23.380;2022-09-01T08:05:08;37.77;;;14.83;;
3967;SDS011;9221;42.646;23.380;2022-09-01T08:07:37;33.47;;;16.73;;
3967;SDS011;9221;42.646;23.380;2022-09-01T08:10:04;28.40;;;15.20;;
3967;SDS011;9221;42.646;23.380;2022-09-01T08:12:31;29.87;;;15.63;;
3967;SDS011;9221;42.646;23.380;2022-09-01T08:14:57;30.87;;;14.03;;
3967;SDS011;9221;42.646;23.380;2022-09-01T08:17:23;29.63;;;14.30;;
3967;SDS011;9221;42.646;23.380;2022-09-01T08:19:48;22.33;;;12.30;;
3967;SDS011;9221;42.646;23.380;2022-09-01T08:22:14;19.43;;;10.43;;
3967;SDS011;9221;42.646;23.380;2022-09-01T08:24:41;23.10;;;10.90;;
3967;SDS011;9221;42.646;23.380;2022-09-01T08:27:06;18.63;;;9.80;;
3967;SDS011;9221;42.646;23.380;2022-09-01T08:29:32;30.97;;;11.90;;
3967;SDS011;9221;42.646;23.380;2022-09-01T08:31:58;21.77;;;11.20;;
3967;SDS011;9221;42.646;23.380;2022-09-01T08:34:24;24.57;;;11.20;;
3967;SDS011;9221;42.646;23.380;2022-09-01T08:36:50;21.77;;;12.03;;
3967;SDS011;9221;42.646;23.380;2022-09-01T08:39:15;18.73;;;11.20;;
3967;SDS011;9221;42.646;23.380;2022-09-01T08:41:42;27.93;;;11.87;;
3967;SDS011;9221;42.646;23.380;2022-09-01T08:44:29;24.73;;;10.97;;
3967;SDS011;9221;42.646;23.380;2022-09-01T08:47:07;21.90;;;11.10;;
3967;SDS011;9221;42.646;23.380;2022-09-01T08:49:36;23.13;;;11.00;;
3967;SDS011;9221;42.646;23.380;2022-09-01T08:54:54;24.40;;;11.10;;
3967;SDS011;9221;42.646;23.380;2022-09-01T08:57:33;18.57;;;9.40;;
3967;SDS011;9221;42.646;23.380;2022-09-01T09:00:05;16.27;;;10.00;;
3967;SDS011;9221;42.646;23.380;2022-09-01T09:08:16;24.57;;;8.57;;
3967;SDS011;9221;42.646;23.380;2022-09-01T09:14:32;17.73;;;9.20;;
3967;SDS011;9221;42.646;23.380;2022-09-01T09:17:02;21.87;;;9.77;;
3967;SDS011;9221;42.646;23.380;2022-09-01T09:19:29;16.43;;;8.80;;
3967;SDS011;9221;42.646;23.380;2022-09-01T09:21:59;20.10;;;9.50;;
3967;SDS011;9221;42.646;23.380;2022-09-01T09:29:50;23.37;;;8.90;;
3967;SDS011;9221;42.646;23.380;2022-09-01T09:32:18;27.40;;;9.37;;
3967;SDS011;9221;42.646;23.380;2022-09-01T09:34:45;21.93;;;9.23;;
3967;SDS011;9221;42.646;23.380;2022-09-01T09:37:22;18.40;;;10.20;;
3967;SDS011;9221;42.646;23.380;2022-09-01T09:42:40;19.30;;;9.67;;
3967;SDS011;9221;42.646;23.380;2022-09-01T09:45:25;16.10;;;8.50;;
3967;SDS011;9221;42.646;23.380;2022-09-01T09:47:51;21.30;;;9.00;;
3967;SDS011;9221;42.646;23.380;2022-09-01T09:53:15;13.23;;;7.57;;
3967;SDS011;9221;42.646;23.380;2022-09-01T09:55:58;20.37;;;8.20;;
3967;SDS011;9221;42.646;23.380;2022-09-01T09:58:35;14.63;;;8.27;;
3967;SDS011;9221;42.646;23.380;2022-09-01T10:01:05;15.83;;;9.17;;
3967;SDS011;9221;42.646;23.380;2022-09-01T10:03:43;15.93;;;8.03;;
3967;SDS011;9221;42.646;23.380;2022-09-01T10:08:57;15.60;;;7.97;;
3967;SDS011;9221;42.646;23.380;2022-09-01T10:11:48;14.63;;;7.90;;
3967;SDS011;9221;42.646;23.380;2022-09-01T10:14:19;13.93;;;8.00;;
3967;SDS011;9221;42.646;23.380;2022-09-01T10:16:52;13.87;;;8.33;;
3967;SDS011;9221;42.646;23.380;2022-09-01T10:19:24;14.70;;;8.20;;
3967;SDS011;9221;42.646;23.380;2022-09-01T10:21:52;14.30;;;7.80;;
3967;SDS011;9221;42.646;23.380;2022-09-01T10:26:48;20.00;;;7.67;;
3967;SDS011;9221;42.646;23.380;2022-09-01T10:29:18;18.13;;;7.80;;
3967;SDS011;9221;42.646;23.380;2022-09-01T10:31:54;13.10;;;7.93;;
3967;SDS011;9221;42.646;23.380;2022-09-01T10:34:20;15.30;;;7.30;;
3967;SDS011;9221;42.646;23.380;2022-09-01T10:36:48;18.47;;;7.83;;
3967;SDS011;9221;42.646;23.380;2022-09-01T10:39:15;13.03;;;7.27;;
3967;SDS011;9221;42.646;23.380;2022-09-01T10:44:08;16.00;;;7.73;;
3967;SDS011;9221;42.646;23.380;2022-09-01T10:46:43;13.10;;;7.87;;
3967;SDS011;9221;42.646;23.380;2022-09-01T10:49:20;14.13;;;6.90;;
3967;SDS011;9221;42.646;23.380;2022-09-01T10:51:52;14.87;;;7.63;;
3967;SDS011;9221;42.646;23.380;2022-09-01T10:57:08;14.93;;;8.70;;
3967;SDS011;9221;42.646;23.380;2022-09-01T11:00:04;19.00;;;8.53;;
3967;SDS011;9221;42.646;23.380;2022-09-01T11:08:39;16.33;;;7.27;;
3967;SDS011;9221;42.646;23.380;2022-09-01T11:13:42;12.17;;;7.03;;
3967;SDS011;9221;42.646;23.380;2022-09-01T11:18:48;17.93;;;7.00;;
3967;SDS011;9221;42.646;23.380;2022-09-01T11:21:15;17.73;;;7.90;;
3967;SDS011;9221;42.646;23.380;2022-09-01T11:26:57;16.30;;;7.73;;
3967;SDS011;9221;42.646;23.380;2022-09-01T11:32:44;19.30;;;7.43;;
3967;SDS011;9221;42.646;23.380;2022-09-01T11:35:16;17.53;;;8.70;;
3967;SDS011;9221;42.646;23.380;2022-09-01T11:37:48;15.00;;;7.37;;
3967;SDS011;9221;42.646;23.380;2022-09-01T11:40:26;15.17;;;8.40;;
3967;SDS011;9221;42.646;23.380;2022-09-01T11:42:55;14.80;;;7.83;;
3967;SDS011;9221;42.646;23.380;2022-09-01T11:45:23;15.20;;;7.90;;
3967;SDS011;9221;42.646;23.380;2022-09-01T11:47:53;14.33;;;7.83;;
3967;SDS011;9221;42.646;23.380;2022-09-01T11:50:22;31.00;;;8.80;;
3967;SDS011;9221;42.646;23.380;2022-09-01T11:53:13;13.20;;;7.90;;
3967;SDS011;9221;42.646;23.380;2022-09-01T11:55:40;14.80;;;8.53;;
3967;SDS011;9221;42.646;23.380;2022-09-01T11:58:28;20.10;;;8.83;;
3967;SDS011;9221;42.646;23.380;2022-09-01T12:01:10;18.50;;;8.50;;
3967;SDS011;9221;42.646;23.380;2022-09-01T12:03:37;14.63;;;8.00;;
3967;SDS011;9221;42.646;23.380;2022-09-01T12:06:03;17.47;;;8.53;;
3967;SDS011;9221;42.646;23.380;2022-09-01T12:08:35;27.80;;;9.30;;
3967;SDS011;9221;42.646;23.380;2022-09-01T12:11:04;18.03;;;8.67;;
3967;SDS011;9221;42.646;23.380;2022-09-01T12:13:38;14.43;;;8.60;;
3967;SDS011;9221;42.646;23.380;2022-09-01T12:16:06;15.23;;;8.20;;
3967;SDS011;9221;42.646;23.380;2022-09-01T12:18:34;21.13;;;7.83;;
3967;SDS011;9221;42.646;23.380;2022-09-01T12:21:05;14.33;;;8.27;;
3967;SDS011;9221;42.646;23.380;2022-09-01T12:23:36;15.90;;;7.70;;
3967;SDS011;9221;42.646;23.380;2022-09-01T12:26:05;22.23;;;7.73;;
3967;SDS011;9221;42.646;23.380;2022-09-01T12:28:35;15.17;;;8.50;;
3967;SDS011;9221;42.646;23.380;2022-09-01T12:31:06;19.43;;;8.53;;
3967;SDS011;9221;42.646;23.380;2022-09-01T12:33:38;19.43;;;8.33;;
3967;SDS011;9221;42.646;23.380;2022-09-01T12:38:55;16.20;;;7.93;;
3967;SDS011;9221;42.646;23.380;2022-09-01T12:41:30;18.00;;;8.67;;
3967;SDS011;9221;42.646;23.380;2022-09-01T12:52:45;14.60;;;7.27;;
3967;SDS011;9221;42.646;23.380;2022-09-01T12:55:16;17.93;;;9.00;;
3967;SDS011;9221;42.646;23.380;2022-09-01T12:57:47;21.27;;;10.23;;
3967;SDS011;9221;42.646;23.380;2022-09-01T13:00:17;19.20;;;8.03;;
3967;SDS011;9221;42.646;23.380;2022-09-01T13:05:30;14.20;;;8.00;;
3967;SDS011;9221;42.646;23.380;2022-09-01T13:08:01;14.97;;;8.70;;
3967;SDS011;9221;42.646;23.380;2022-09-01T13:10:33;12.40;;;7.87;;
3967;SDS011;9221;42.646;23.380;2022-09-01T13:13:05;18.03;;;8.10;;
3967;SDS011;9221;42.646;23.380;2022-09-01T13:15:32;14.67;;;7.90;;
3967;SDS011;9221;42.646;23.380;2022-09-01T13:17:59;18.67;;;7.80;;
3967;SDS011;9221;42.646;23.380;2022-09-01T13:20:25;13.13;;;8.17;;
3967;SDS011;9221;42.646;23.380;2022-09-01T13:22:50;18.33;;;9.07;;
3967;SDS011;9221;42.646;23.380;2022-09-01T13:25:18;15.47;;;7.97;;
3967;SDS011;9221;42.646;23.380;2022-09-01T13:27:46;18.07;;;8.53;;
3967;SDS011;9221;42.646;23.380;2022-09-01T13:30:16;15.90;;;8.10;;
3967;SDS011;9221;42.646;23.380;2022-09-01T13:32:46;27.90;;;8.57;;
3967;SDS011;9221;42.646;23.380;2022-09-01T13:35:17;17.07;;;7.83;;
3967;SDS011;9221;42.646;23.380;2022-09-01T13:37:44;22.83;;;8.87;;
3967;SDS011;9221;42.646;23.380;2022-09-01T13:40:10;23.40;;;8.43;;
3967;SDS011;9221;42.646;23.380;2022-09-01T13:42:46;25.57;;;10.20;;
3967;SDS011;9221;42.646;23.380;2022-09-01T13:45:14;18.90;;;9.53;;
3967;SDS011;9221;42.646;23.380;2022-09-01T13:47:42;19.43;;;9.33;;
3967;SDS011;9221;42.646;23.380;2022-09-01T13:50:14;22.40;;;10.83;;
3967;SDS011;9221;42.646;23.380;2022-09-01T13:52:43;16.10;;;9.60;;
3967;SDS011;9221;42.646;23.380;2022-09-01T13:55:14;25.17;;;10.57;;
3967;SDS011;9221;42.646;23.380;2022-09-01T13:57:45;23.63;;;10.93;;
3967;SDS011;9221;42.646;23.380;2022-09-01T14:00:12;19.93;;;10.17;;
3967;SDS011;9221;42.646;23.380;2022-09-01T14:02:43;21.67;;;10.30;;
3967;SDS011;9221;42.646;23.380;2022-09-01T14:05:21;15.13;;;9.43;;
3967;SDS011;9221;42.646;23.380;2022-09-01T14:07:49;20.43;;;10.63;;
3967;SDS011;9221;42.646;23.380;2022-09-01T14:10:16;15.10;;;8.40;;
3967;SDS011;9221;42.646;23.380;2022-09-01T14:12:42;25.07;;;9.70;;
3967;SDS011;9221;42.646;23.380;2022-09-01T14:15:10;14.50;;;8.80;;
3967;SDS011;9221;42.646;23.380;2022-09-01T14:17:36;14.40;;;9.10;;
3967;SDS011;9221;42.646;23.380;2022-09-01T14:20:06;17.13;;;8.87;;
3967;SDS011;9221;42.646;23.380;2022-09-01T14:22:37;20.27;;;8.60;;
3967;SDS011;9221;42.646;23.380;2022-09-01T14:25:04;20.57;;;9.87;;
3967;SDS011;9221;42.646;23.380;2022-09-01T14:27:30;14.53;;;8.97;;
3967;SDS011;9221;42.646;23.380;2022-09-01T14:29:56;16.77;;;9.17;;
3967;SDS011;9221;42.646;23.380;2022-09-01T14:32:21;16.00;;;8.73;;
3967;SDS011;9221;42.646;23.380;2022-09-01T14:34:51;20.03;;;10.30;;
3967;SDS011;9221;42.646;23.380;2022-09-01T14:37:18;23.80;;;10.63;;
3967;SDS011;9221;42.646;23.380;2022-09-01T14:39:51;16.13;;;9.70;;
3967;SDS011;9221;42.646;23.380;2022-09-01T14:42:18;15.57;;;9.23;;
3967;SDS011;9221;42.646;23.380;2022-09-01T14:44:44;20.23;;;10.20;;
3967;SDS011;9221;42.646;23.380;2022-09-01T14:47:11;15.70;;;9.67;;
3967;SDS011;9221;42.646;23.380;2022-09-01T14:49:37;20.73;;;9.00;;
3967;SDS011;9221;42.646;23.380;2022-09-01T14:52:03;18.17;;;9.10;;
3967;SDS011;9221;42.646;23.380;2022-09-01T14:54:31;19.70;;;10.10;;
3967;SDS011;9221;42.646;23.380;2022-09-01T14:56:58;22.03;;;10.83;;
3967;SDS011;9221;42.646;23.380;2022-09-01T14:59:24;14.80;;;8.90;;
3967;SDS011;9221;42.646;23.380;2022-09-01T15:01:49;15.47;;;8.90;;
3967;SDS011;9221;42.646;23.380;2022-09-01T15:04:15;16.43;;;9.00;;
3967;SDS011;9221;42.646;23.380;2022-09-01T15:06:40;14.80;;;9.03;;
3967;SDS011;9221;42.646;23.380;2022-09-01T15:09:06;17.27;;;9.17;;
3967;SDS011;9221;42.646;23.380;2022-09-01T15:11:31;18.90;;;9.70;;
3967;SDS011;9221;42.646;23.380;2022-09-01T15:13:56;18.93;;;10.37;;
3967;SDS011;9221;42.646;23.380;2022-09-01T15:16:23;19.00;;;9.80;;
3967;SDS011;9221;42.646;23.380;2022-09-01T15:18:50;17.73;;;9.50;;
3967;SDS011;9221;42.646;23.380;2022-09-01T15:21:24;16.17;;;9.07;;
3967;SDS011;9221;42.646;23.380;2022-09-01T15:23:52;20.70;;;10.40;;
3967;SDS011;9221;42.646;23.380;2022-09-01T15:26:18;15.77;;;8.93;;
3967;SDS011;9221;42.646;23.380;2022-09-01T15:28:44;15.80;;;9.30;;
3967;SDS011;9221;42.646;23.380;2022-09-01T15:31:12;18.50;;;9.70;;
3967;SDS011;9221;42.646;23.380;2022-09-01T15:33:39;13.73;;;9.10;;
3967;SDS011;9221;42.646;23.380;2022-09-01T15:36:06;25.70;;;9.47;;
3967;SDS011;9221;42.646;23.380;2022-09-01T15:38:32;17.37;;;9.37;;
3967;SDS011;9221;42.646;23.380;2022-09-01T15:40:58;22.40;;;10.10;;
3967;SDS011;9221;42.646;23.380;2022-09-01T15:43:25;20.27;;;9.73;;
3967;SDS011;9221;42.646;23.380;2022-09-01T15:45:51;20.13;;;9.70;;
3967;SDS011;9221;42.646;23.380;2022-09-01T15:48:17;14.93;;;9.17;;
3967;SDS011;9221;42.646;23.380;2022-09-01T15:50:42;19.73;;;9.40;;
3967;SDS011;9221;42.646;23.380;2022-09-01T15:53:08;18.70;;;10.23;;
3967;SDS011;9221;42.646;23.380;2022-09-01T15:55:38;33.33;;;10.40;;
3967;SDS011;9221;42.646;23.380;2022-09-01T15:58:09;16.60;;;9.43;;
3967;SDS011;9221;42.646;23.380;2022-09-01T16:00:36;18.80;;;9.97;;
3967;SDS011;9221;42.646;23.380;2022-09-01T16:03:03;15.87;;;9.27;;
3967;SDS011;9221;42.646;23.380;2022-09-01T16:05:29;19.43;;;10.80;;
3967;SDS011;9221;42.646;23.380;2022-09-01T16:07:56;17.33;;;9.43;;
3967;SDS011;9221;42.646;23.380;2022-09-01T16:10:23;18.17;;;9.37;;
3967;SDS011;9221;42.646;23.380;2022-09-01T16:12:48;20.33;;;9.17;;